Time;durP1;ratioP1;P1;durP2;ratioP2;P2;SDS_P1;SDS_P2;PMS_P1;PMS_P2;Temp;Humidity;BMP_temperature;BMP_pressure;BME280_temperature;BME280_humidity;BME280_pressure;Samples;Min_cycle;Max_cycle;Signal;HPM_P1;HPM_P2
2022/05/12 00:00:59;;;;;;;;;;;;;;;12.82;58.16;100419.16;4427901;32;19992;-70
2022/05/12 00:03:25;;;;;;;;;;;;;;;12.85;58.03;100418.22;4430237;32;20041;-70
2022/05/12 00:05:51;;;;;;;;;;;;;;;12.87;57.77;100423.41;4428346;32;19972;-70
2022/05/12 00:08:17;;;;;;;;;;;;;;;12.85;58.26;100425.91;4427875;32;20384;-70
2022/05/12 00:10:43;;;;;;;;;;;;;;;12.96;57.99;100441.22;4428251;32;20027;-70
2022/05/12 00:13:08;;;;;;;;;;;;;;;13.00;57.90;100441.09;4428366;32;19961;-70
2022/05/12 00:15:35;;;;;;;;;;;;;;;12.56;59.24;100431.84;4429487;32;20009;-70
2022/05/12 00:18:03;;;;;;;;;;;;;;;12.98;57.59;100430.22;4431888;32;19967;-70
2022/05/12 00:20:29;;;;;;;;;;;;;;;13.00;58.06;100432.63;4428387;32;20000;-70
2022/05/12 00:23:12;;;;;;;;;;;;;;;13.01;58.45;100437.81;4431724;32;20002;-70
2022/05/12 00:25:38;;;;;;;;;;;;;;;12.98;58.50;100438.69;4427839;32;19957;-69
2022/05/12 00:28:05;;;;;;;;;;;;;;;12.95;58.64;100448.09;4431738;32;20007;-69
2022/05/12 00:30:30;;;;;;;;;;;;;;;13.24;57.92;100447.81;4421156;32;19996;-69
2022/05/12 00:32:56;;;;;;;;;;;;;;;13.34;57.67;100461.53;4425050;32;19968;-69
2022/05/12 00:35:22;;;;;;;;;;;;;;;13.30;58.08;100454.44;4431773;32;20362;-69
2022/05/12 00:37:47;;;;;;;;;;;;;;;13.21;58.46;100443.87;4430755;32;19991;-70
2022/05/12 00:40:14;;;;;;;;;;;;;;;13.48;57.66;100454.53;4428133;32;20048;-70
2022/05/12 00:42:51;;;;;;;;;;;;;;;13.25;58.23;100469.16;4427555;32;20011;-70
2022/05/12 00:45:17;;;;;;;;;;;;;;;13.83;56.86;100464.37;4430897;32;20244;-70
2022/05/12 00:47:43;;;;;;;;;;;;;;;13.22;58.42;100468.06;4429378;32;20004;-70
2022/05/12 00:50:09;;;;;;;;;;;;;;;13.17;58.64;100474.34;4430032;32;19975;-70
2022/05/12 00:52:35;;;;;;;;;;;;;;;13.31;58.48;100462.47;4427115;32;20038;-70
2022/05/12 00:55:04;;;;;;;;;;;;;;;13.33;59.02;100457.13;4429467;32;20031;-70
2022/05/12 00:57:33;;;;;;;;;;;;;;;13.40;58.42;100476.63;4430985;32;20390;-70
2022/05/12 00:59:59;;;;;;;;;;;;;;;13.33;58.61;100479.75;4430383;32;19996;-70
2022/05/12 01:02:31;;;;;;;;;;;;;;;13.72;57.02;100481.78;4426447;32;20029;-70
2022/05/12 01:04:57;;;;;;;;;;;;;;;13.39;57.81;100479.94;4427326;32;19961;-70
2022/05/12 01:07:23;;;;;;;;;;;;;;;13.35;58.12;100490.59;4427926;32;20047;-70
2022/05/12 01:09:50;;;;;;;;;;;;;;;13.28;58.22;100486.00;4431432;32;20007;-70
2022/05/12 01:12:17;;;;;;;;;;;;;;;13.85;56.36;100490.94;4432477;32;20007;-70
2022/05/12 01:14:42;;;;;;;;;;;;;;;13.08;58.58;100501.72;4426853;32;20042;-69
2022/05/12 01:17:08;;;;;;;;;;;;;;;12.84;59.56;100497.75;4430296;32;19953;-70
2022/05/12 01:19:35;;;;;;;;;;;;;;;12.76;59.87;100499.28;4430364;32;20082;-70
2022/05/12 01:22:03;;;;;;;;;;;;;;;12.70;60.11;100495.47;4430351;32;20000;-70
2022/05/12 01:24:34;;;;;;;;;;;;;;;12.61;60.51;100493.34;4432038;32;19988;-70
2022/05/12 01:27:18;;;;;;;;;;;;;;;12.81;60.12;100504.34;4429595;32;19992;-70
2022/05/12 01:29:45;;;;;;;;;;;;;;;12.59;60.62;100504.34;4429936;32;19961;-70
2022/05/12 01:32:11;;;;;;;;;;;;;;;12.44;61.23;100497.63;4430143;32;19976;-70
2022/05/12 01:34:37;;;;;;;;;;;;;;;12.37;61.84;100502.72;4431035;32;19957;-69
2022/05/12 01:37:03;;;;;;;;;;;;;;;12.66;60.81;100501.25;4428037;32;19965;-69
2022/05/12 01:39:28;;;;;;;;;;;;;;;12.70;60.55;100504.72;4428313;32;19972;-70
2022/05/12 01:41:54;;;;;;;;;;;;;;;12.41;61.77;100500.56;4429502;32;19983;-70
2022/05/12 01:44:19;;;;;;;;;;;;;;;12.68;61.41;100507.22;4429667;32;19961;-70
2022/05/12 01:46:45;;;;;;;;;;;;;;;12.38;62.02;100505.09;4429110;32;19948;-70
2022/05/12 01:49:10;;;;;;;;;;;;;;;12.25;62.63;100512.00;4429259;32;19953;-70
2022/05/12 01:51:38;;;;;;;;;;;;;;;12.17;62.57;100510.66;4427784;32;20436;-69
2022/05/12 01:54:04;;;;;;;;;;;;;;;12.09;62.96;100510.12;4430112;32;19991;-69
2022/05/12 01:56:30;;;;;;;;;;;;;;;12.08;62.95;100508.53;4429603;32;20008;-69
2022/05/12 01:58:56;;;;;;;;;;;;;;;12.05;63.16;100509.44;4431250;32;19965;-69
2022/05/12 02:01:21;;;;;;;;;;;;;;;12.25;62.34;100504.34;4428859;32;20088;-69
2022/05/12 02:03:47;;;;;;;;;;;;;;;12.24;62.45;100507.63;4428136;32;19997;-69
2022/05/12 02:06:13;;;;;;;;;;;;;;;12.24;62.68;100502.75;4427906;32;19964;-69
2022/05/12 02:08:39;;;;;;;;;;;;;;;12.33;62.66;100507.72;4429894;32;19961;-69
2022/05/12 02:11:04;;;;;;;;;;;;;;;12.16;63.34;100504.25;4427636;32;19988;-69
2022/05/12 02:13:30;;;;;;;;;;;;;;;12.23;63.51;100506.81;4427036;32;20322;-69
2022/05/12 02:15:56;;;;;;;;;;;;;;;12.22;63.34;100499.59;4427666;32;19984;-69
2022/05/12 02:18:22;;;;;;;;;;;;;;;12.77;61.53;100503.69;4430073;32;20012;-69
2022/05/12 02:20:48;;;;;;;;;;;;;;;12.87;60.80;100508.16;4425292;32;21001;-69
2022/05/12 02:23:14;;;;;;;;;;;;;;;12.64;61.76;100512.19;4426236;32;19949;-69
2022/05/12 02:25:39;;;;;;;;;;;;;;;12.67;61.70;100513.34;4430169;32;20414;-69
2022/05/12 02:28:05;;;;;;;;;;;;;;;12.62;61.46;100523.19;4428920;32;20350;-69
2022/05/12 02:30:31;;;;;;;;;;;;;;;12.77;61.20;100526.28;4427006;32;20048;-69
2022/05/12 02:32:57;;;;;;;;;;;;;;;12.72;61.31;100530.47;4430804;32;20414;-69
2022/05/12 02:35:23;;;;;;;;;;;;;;;12.77;61.19;100529.91;4431385;32;20008;-69
2022/05/12 02:37:49;;;;;;;;;;;;;;;12.82;60.81;100528.53;4428894;32;20012;-70
2022/05/12 02:40:17;;;;;;;;;;;;;;;12.75;61.12;100528.75;4427596;32;19988;-70
2022/05/12 02:42:42;;;;;;;;;;;;;;;12.69;61.10;100539.06;4429431;32;20000;-70
2022/05/12 02:45:08;;;;;;;;;;;;;;;12.63;61.20;100541.69;4429179;32;20001;-70
2022/05/12 02:47:33;;;;;;;;;;;;;;;13.04;59.92;100543.47;4430322;32;20040;-70
2022/05/12 02:49:59;;;;;;;;;;;;;;;13.15;59.39;100546.66;4428147;32;20001;-69
2022/05/12 02:52:25;;;;;;;;;;;;;;;13.07;59.54;100548.97;4426328;32;20005;-69
2022/05/12 02:54:50;;;;;;;;;;;;;;;13.16;59.46;100548.25;4428974;32;20358;-69
2022/05/12 02:57:16;;;;;;;;;;;;;;;13.18;59.34;100557.03;4427576;32;20044;-69
2022/05/12 02:59:41;;;;;;;;;;;;;;;13.10;59.50;100555.75;4427511;32;20069;-69
2022/05/12 03:02:07;;;;;;;;;;;;;;;13.11;59.47;100551.66;4425769;32;19957;-69
2022/05/12 03:04:33;;;;;;;;;;;;;;;13.10;59.32;100550.09;4430659;32;20096;-69
2022/05/12 03:06:59;;;;;;;;;;;;;;;13.10;59.50;100550.88;4426205;32;19964;-69
2022/05/12 03:09:25;;;;;;;;;;;;;;;13.06;59.29;100553.03;4428317;32;20048;-69
2022/05/12 03:11:51;;;;;;;;;;;;;;;13.04;59.36;100561.19;4426062;32;20236;-69
2022/05/12 03:14:16;;;;;;;;;;;;;;;12.97;59.84;100558.59;4427745;32;20057;-69
2022/05/12 03:16:42;;;;;;;;;;;;;;;12.85;60.11;100564.28;4428332;32;20006;-70
2022/05/12 03:19:08;;;;;;;;;;;;;;;12.71;60.71;100554.31;4433287;32;20394;-70
2022/05/12 03:21:34;;;;;;;;;;;;;;;12.75;60.58;100554.97;4430236;32;19993;-70
2022/05/12 03:24:00;;;;;;;;;;;;;;;12.76;60.49;100553.72;4433473;32;20311;-70
2022/05/12 03:26:26;;;;;;;;;;;;;;;12.81;60.31;100553.13;4431343;32;19957;-70
2022/05/12 03:28:51;;;;;;;;;;;;;;;12.73;60.73;100554.63;4427741;32;20302;-69
2022/05/12 03:31:18;;;;;;;;;;;;;;;12.65;60.82;100561.78;4431175;32;19991;-69
2022/05/12 03:33:46;;;;;;;;;;;;;;;12.60;61.18;100562.34;4431598;32;19971;-69
2022/05/12 03:36:12;;;;;;;;;;;;;;;12.55;61.28;100562.94;4433319;32;19971;-69
2022/05/12 03:38:37;;;;;;;;;;;;;;;12.20;62.39;100561.31;4433265;32;19953;-69
2022/05/12 03:41:03;;;;;;;;;;;;;;;12.52;61.81;100568.72;4428590;32;19953;-69
2022/05/12 03:46:13;;;;;;;;;;;;;;;12.45;62.08;100566.16;4431209;32;19974;-69
2022/05/12 03:48:39;;;;;;;;;;;;;;;12.40;62.24;100569.53;4433102;32;20000;-69
2022/05/12 03:51:06;;;;;;;;;;;;;;;12.40;62.05;100570.34;4431262;32;20032;-69
2022/05/12 03:53:32;;;;;;;;;;;;;;;12.28;62.72;100568.31;4432198;32;20004;-69
2022/05/12 03:55:58;;;;;;;;;;;;;;;12.27;62.75;100558.25;4432851;32;20000;-69
2022/05/12 03:58:24;;;;;;;;;;;;;;;12.20;62.84;100549.25;4432361;32;20434;-69
2022/05/12 04:00:50;;;;;;;;;;;;;;;12.18;62.97;100558.16;4431808;32;20052;-69
2022/05/12 04:03:18;;;;;;;;;;;;;;;12.10;63.08;100556.84;4431915;32;19999;-69
2022/05/12 04:05:43;;;;;;;;;;;;;;;11.56;64.68;100561.75;4431172;32;20002;-69
2022/05/12 04:08:09;;;;;;;;;;;;;;;11.37;65.64;100559.94;4429299;32;19993;-69
2022/05/12 04:10:35;;;;;;;;;;;;;;;11.37;65.37;100566.37;4428911;32;19953;-69
2022/05/12 04:13:00;;;;;;;;;;;;;;;11.31;65.84;100567.38;4430603;32;19949;-69
2022/05/12 04:15:26;;;;;;;;;;;;;;;11.51;64.98;100576.44;4428428;32;19993;-69
2022/05/12 04:17:56;;;;;;;;;;;;;;;11.28;65.92;100576.72;4430523;32;20252;-69
2022/05/12 04:20:22;;;;;;;;;;;;;;;11.15;66.67;100575.91;4429979;32;19996;-69
2022/05/12 04:22:48;;;;;;;;;;;;;;;11.29;66.58;100576.25;4431345;32;19967;-69
2022/05/12 04:25:13;;;;;;;;;;;;;;;11.10;66.93;100584.88;4430514;32;19992;-69
2022/05/12 04:27:39;;;;;;;;;;;;;;;11.12;66.79;100582.41;4430714;32;20451;-69
2022/05/12 04:30:07;;;;;;;;;;;;;;;11.16;66.62;100585.91;4428883;32;20299;-69
2022/05/12 04:32:33;;;;;;;;;;;;;;;11.17;66.55;100588.28;4430700;32;20011;-69
2022/05/12 04:35:14;;;;;;;;;;;;;;;11.08;66.54;100587.38;4430548;32;19965;-69
2022/05/12 04:37:41;;;;;;;;;;;;;;;11.03;67.03;100585.09;4428532;32;19993;-69
2022/05/12 04:40:09;;;;;;;;;;;;;;;11.21;66.45;100589.00;4427125;32;20056;-69
2022/05/12 04:42:34;;;;;;;;;;;;;;;11.36;66.00;100587.34;4428013;32;19965;-69
2022/05/12 04:45:00;;;;;;;;;;;;;;;11.38;66.21;100584.84;4428383;32;20338;-69
2022/05/12 04:47:26;;;;;;;;;;;;;;;11.43;66.12;100589.16;4430860;32;19992;-69
2022/05/12 04:49:52;;;;;;;;;;;;;;;11.50;65.81;100588.91;4433823;32;20054;-69
2022/05/12 04:52:17;;;;;;;;;;;;;;;11.62;65.46;100591.00;4426659;32;19989;-69
2022/05/12 04:54:43;;;;;;;;;;;;;;;11.66;65.21;100588.88;4430703;32;19973;-69
2022/05/12 04:57:09;;;;;;;;;;;;;;;11.96;64.20;100616.50;4430311;32;19957;-69
2022/05/12 04:59:34;;;;;;;;;;;;;;;11.71;64.72;100608.84;4431431;32;20367;-69
2022/05/12 05:02:00;;;;;;;;;;;;;;;11.76;64.62;100610.31;4428483;32;20299;-69
2022/05/12 05:04:28;;;;;;;;;;;;;;;11.73;64.54;100611.97;4427892;32;19961;-69
2022/05/12 05:06:54;;;;;;;;;;;;;;;11.84;64.61;100614.47;4427352;32;20365;-69
2022/05/12 05:09:19;;;;;;;;;;;;;;;12.28;63.14;100616.28;4430922;32;19999;-69
2022/05/12 05:11:45;;;;;;;;;;;;;;;12.02;63.86;100628.81;4426910;32;19956;-69
2022/05/12 05:14:10;;;;;;;;;;;;;;;12.07;63.78;100628.25;4429089;32;19993;-69
2022/05/12 05:16:36;;;;;;;;;;;;;;;12.16;63.83;100617.09;4426832;32;20006;-69
2022/05/12 05:19:01;;;;;;;;;;;;;;;12.00;64.06;100643.38;4428234;32;20413;-69
2022/05/12 05:21:27;;;;;;;;;;;;;;;12.09;63.65;100632.19;4423111;32;20609;-69
2022/05/12 05:23:53;;;;;;;;;;;;;;;12.22;63.59;100628.59;4431434;32;20032;-69
2022/05/12 05:26:19;;;;;;;;;;;;;;;12.42;63.30;100640.44;4428612;32;21153;-69
2022/05/12 05:28:44;;;;;;;;;;;;;;;12.37;62.99;100638.16;4429368;32;20555;-69
2022/05/12 05:31:09;;;;;;;;;;;;;;;12.58;62.28;100645.94;4426517;32;20400;-69
2022/05/12 05:33:35;;;;;;;;;;;;;;;12.65;62.11;100640.84;4430681;32;20419;-69
2022/05/12 05:36:01;;;;;;;;;;;;;;;12.46;62.82;100643.91;4428377;32;20031;-69
2022/05/12 05:38:27;;;;;;;;;;;;;;;12.32;63.30;100653.63;4429486;32;19997;-69
2022/05/12 05:40:52;;;;;;;;;;;;;;;12.91;61.71;100647.19;4433446;32;20371;-69
2022/05/12 05:43:19;;;;;;;;;;;;;;;13.21;60.66;100669.94;4433489;32;19958;-70
2022/05/12 05:45:45;;;;;;;;;;;;;;;13.32;60.52;100652.59;4428713;32;19994;-69
2022/05/12 05:48:10;;;;;;;;;;;;;;;12.90;61.71;100666.19;4425691;32;19977;-69
2022/05/12 05:53:27;;;;;;;;;;;;;;;13.05;62.30;100664.47;4429824;32;19962;-69
2022/05/12 05:55:54;;;;;;;;;;;;;;;13.34;61.45;100673.50;4427605;32;19989;-69
2022/05/12 05:58:20;;;;;;;;;;;;;;;13.54;61.01;100676.81;4426660;32;19954;-69
2022/05/12 06:00:46;;;;;;;;;;;;;;;14.05;59.51;100666.75;4424676;32;20278;-69
2022/05/12 06:03:13;;;;;;;;;;;;;;;14.48;58.30;100679.22;4430116;32;20339;-70
2022/05/12 06:05:38;;;;;;;;;;;;;;;14.61;57.55;100680.69;4429332;32;19956;-70
2022/05/12 06:08:05;;;;;;;;;;;;;;;14.47;57.92;100686.91;4428255;32;19998;-69
2022/05/12 06:10:30;;;;;;;;;;;;;;;14.98;56.36;100695.72;4428473;32;20000;-69
2022/05/12 06:12:56;;;;;;;;;;;;;;;15.24;55.54;100694.16;4425622;32;20311;-69
2022/05/12 06:15:22;;;;;;;;;;;;;;;15.12;55.56;100697.94;4426185;32;19972;-70
2022/05/12 06:17:48;;;;;;;;;;;;;;;15.21;55.36;100698.72;4427120;32;20351;-69
2022/05/12 06:20:13;;;;;;;;;;;;;;;14.98;55.67;100693.69;4429465;32;20447;-69
2022/05/12 06:22:39;;;;;;;;;;;;;;;15.21;55.81;100707.25;4426678;32;20318;-69
2022/05/12 06:25:07;;;;;;;;;;;;;;;15.22;55.92;100696.69;4427660;32;19953;-70
2022/05/12 06:27:33;;;;;;;;;;;;;;;15.09;56.05;100693.19;4425598;32;20019;-70
2022/05/12 06:29:59;;;;;;;;;;;;;;;14.92;56.62;100695.56;4426546;32;20436;-69
2022/05/12 06:32:26;;;;;;;;;;;;;;;14.98;56.27;100701.37;4426988;32;20033;-69
2022/05/12 06:34:52;;;;;;;;;;;;;;;14.91;56.38;100704.53;4426809;32;20013;-69
2022/05/12 06:37:19;;;;;;;;;;;;;;;15.11;54.89;100707.69;4424187;32;20014;-69
2022/05/12 06:39:45;;;;;;;;;;;;;;;15.08;54.94;100705.81;4423167;32;19953;-69
2022/05/12 06:42:12;;;;;;;;;;;;;;;15.04;54.52;100713.69;4417399;32;20015;-69
2022/05/12 06:44:41;;;;;;;;;;;;;;;14.80;55.01;100715.50;4423176;32;20469;-68
2022/05/12 06:47:09;;;;;;;;;;;;;;;15.02;54.42;100716.97;4423659;32;20022;-70
2022/05/12 06:49:35;;;;;;;;;;;;;;;15.06;54.87;100717.59;4421879;32;19975;-69
2022/05/12 06:52:03;;;;;;;;;;;;;;;15.67;52.52;100725.06;4426258;32;20267;-70
2022/05/12 06:54:29;;;;;;;;;;;;;;;15.08;53.88;100719.97;4424300;32;20295;-70
2022/05/12 06:56:55;;;;;;;;;;;;;;;15.27;53.61;100728.03;4428576;32;19987;-70
2022/05/12 06:59:20;;;;;;;;;;;;;;;15.60;51.81;100731.87;4423115;32;20345;-70
2022/05/12 07:01:50;;;;;;;;;;;;;;;15.40;52.15;100733.59;4427491;32;20007;-70
2022/05/12 07:04:16;;;;;;;;;;;;;;;15.43;51.94;100736.25;4426191;32;19954;-70
2022/05/12 07:06:41;;;;;;;;;;;;;;;15.80;51.19;100739.88;4425985;32;20388;-69
2022/05/12 07:09:07;;;;;;;;;;;;;;;15.53;51.48;100739.91;4424465;32;20998;-70
2022/05/12 07:11:32;;;;;;;;;;;;;;;15.95;51.09;100750.13;4425021;32;20429;-70
2022/05/12 07:13:58;;;;;;;;;;;;;;;15.86;50.62;100746.50;4423079;32;20373;-70
2022/05/12 07:16:23;;;;;;;;;;;;;;;16.07;50.66;100756.88;4427374;32;19961;-70
2022/05/12 07:18:49;;;;;;;;;;;;;;;16.32;49.94;100750.03;4425488;32;20011;-70
2022/05/12 07:26:47;;;;;;;;;;;;;;;15.98;50.31;100763.34;4420933;32;19957;-70
2022/05/12 07:29:17;;;;;;;;;;;;;;;16.33;50.07;100768.66;4426760;32;20092;-70
2022/05/12 07:31:44;;;;;;;;;;;;;;;16.28;49.60;100778.59;4424395;32;19999;-70
2022/05/12 07:34:09;;;;;;;;;;;;;;;16.51;48.71;100783.59;4424878;32;20123;-70
2022/05/12 07:36:37;;;;;;;;;;;;;;;16.46;48.75;100774.94;4424809;32;19983;-71
2022/05/12 07:39:03;;;;;;;;;;;;;;;17.09;47.57;100781.12;4423970;32;20697;-70
2022/05/12 07:41:28;;;;;;;;;;;;;;;17.18;47.72;100778.25;4430144;32;20003;-70
2022/05/12 07:43:54;;;;;;;;;;;;;;;17.55;46.90;100781.69;4424250;32;20009;-70
2022/05/12 07:46:23;;;;;;;;;;;;;;;17.62;46.73;100776.37;4426291;32;20420;-70
2022/05/12 07:48:49;;;;;;;;;;;;;;;17.80;46.22;100772.63;4426234;32;19984;-70
2022/05/12 07:51:16;;;;;;;;;;;;;;;18.09;45.49;100766.16;4426349;32;20114;-71
2022/05/12 07:53:41;;;;;;;;;;;;;;;18.42;45.00;100783.91;4427498;32;20403;-71
2022/05/12 07:56:08;;;;;;;;;;;;;;;18.78;43.72;100772.84;4425248;32;20423;-70
2022/05/12 07:58:34;;;;;;;;;;;;;;;19.19;42.52;100770.88;4425642;32;20445;-70
2022/05/12 08:00:59;;;;;;;;;;;;;;;18.74;43.36;100780.03;4420875;32;20008;-70
2022/05/12 08:03:26;;;;;;;;;;;;;;;18.24;44.47;100779.16;4422641;32;20012;-70
2022/05/12 08:05:52;;;;;;;;;;;;;;;19.10;42.34;100788.91;4422990;32;20440;-69
2022/05/12 08:08:18;;;;;;;;;;;;;;;19.30;42.09;100785.34;4424367;32;20088;-69
2022/05/12 08:10:43;;;;;;;;;;;;;;;19.04;42.66;100773.78;4424593;32;20049;-69
2022/05/12 08:13:14;;;;;;;;;;;;;;;19.25;42.51;100781.09;4419131;32;20420;-70
2022/05/12 08:15:41;;;;;;;;;;;;;;;19.66;41.16;100785.56;4423350;32;19996;-70
2022/05/12 08:18:08;;;;;;;;;;;;;;;19.43;41.17;100795.09;4423898;32;20020;-69
2022/05/12 08:20:34;;;;;;;;;;;;;;;18.97;42.09;100785.63;4425445;32;20030;-70
2022/05/12 08:23:00;;;;;;;;;;;;;;;18.45;43.27;100786.56;4424294;32;19964;-70
2022/05/12 08:25:25;;;;;;;;;;;;;;;18.55;43.51;100782.31;4425323;32;20028;-70
2022/05/12 08:27:52;;;;;;;;;;;;;;;18.64;43.24;100781.44;4428631;32;20016;-70
2022/05/12 08:30:18;;;;;;;;;;;;;;;18.92;43.14;100791.22;4426930;32;20409;-70
2022/05/12 08:32:44;;;;;;;;;;;;;;;18.76;42.56;100798.22;4430337;32;20045;-70
2022/05/12 08:35:10;;;;;;;;;;;;;;;18.80;42.23;100798.00;4429470;32;19953;-71
2022/05/12 08:37:36;;;;;;;;;;;;;;;18.63;42.11;100806.31;4427531;32;20439;-70
2022/05/12 08:40:03;;;;;;;;;;;;;;;18.65;41.81;100814.38;4427355;32;20341;-71
2022/05/12 08:42:33;;;;;;;;;;;;;;;18.49;42.33;100817.69;4426019;32;20351;-71
2022/05/12 08:45:01;;;;;;;;;;;;;;;18.40;42.07;100827.13;4426722;32;20005;-71
2022/05/12 08:47:29;;;;;;;;;;;;;;;18.20;42.83;100809.91;4427503;32;20334;-71
2022/05/12 08:49:56;;;;;;;;;;;;;;;18.14;42.57;100811.88;4431686;32;19952;-71
2022/05/12 08:52:27;;;;;;;;;;;;;;;18.20;42.71;100818.47;4423136;32;20506;-71
2022/05/12 08:54:55;;;;;;;;;;;;;;;18.01;43.12;100825.56;4428069;32;19985;-70
2022/05/12 08:57:26;;;;;;;;;;;;;;;17.93;43.22;100818.69;4428085;32;19993;-70
2022/05/12 08:59:52;;;;;;;;;;;;;;;17.79;43.51;100823.06;4426478;32;20033;-70
2022/05/12 09:02:24;;;;;;;;;;;;;;;16.67;46.25;100834.41;4423454;32;20005;-71
2022/05/12 09:07:28;;;;;;;;;;;;;;;18.38;43.49;100823.97;3947070;32;15749178;-72
2022/05/12 09:10:01;;;;;;;;;;;;;;;18.38;43.49;100823.97;4416539;32;20654;-71
2022/05/12 09:12:47;;;;;;;;;;;;;;;18.14;43.40;100831.00;4418916;32;19968;-72
2022/05/12 09:15:16;;;;;;;;;;;;;;;18.18;43.49;100838.09;4416446;32;19965;-71
2022/05/12 09:17:45;;;;;;;;;;;;;;;17.61;45.12;100840.28;4418266;32;20000;-72
2022/05/12 09:20:11;;;;;;;;;;;;;;;16.95;45.74;100833.03;4420527;32;19953;-71
2022/05/12 09:22:37;;;;;;;;;;;;;;;16.91;46.21;100831.62;4419148;32;20450;-72
2022/05/12 09:25:03;;;;;;;;;;;;;;;17.14;46.03;100833.72;4417363;32;19968;-72
2022/05/12 09:27:32;;;;;;;;;;;;;;;17.35;45.81;100836.31;4418345;32;20446;-72
2022/05/12 09:29:58;;;;;;;;;;;;;;;17.56;45.39;100840.16;4416555;32;20003;-71
2022/05/12 09:32:25;;;;;;;;;;;;;;;17.86;44.71;100842.62;4416116;32;19973;-71
2022/05/12 09:37:43;;;;;;;;;;;;;;;18.27;42.69;100835.16;3950168;31;15717174;-71
2022/05/12 09:40:35;;;;;;;;;;;;;;;18.27;42.69;100835.16;4415091;32;20277;-71
2022/05/12 09:43:02;;;;;;;;;;;;;;;17.89;43.58;100833.09;4417594;32;20048;-70
2022/05/12 09:48:22;;;;;;;;;;;;;;;18.78;41.73;100834.81;3960071;31;15716906;-71
2022/05/12 09:50:48;;;;;;;;;;;;;;;18.78;41.73;100834.81;4444144;32;19961;-71
2022/05/12 09:53:23;;;;;;;;;;;;;;;18.69;41.77;100834.91;4440791;32;19957;-71
2022/05/12 09:55:59;;;;;;;;;;;;;;;18.79;41.61;100839.22;4444908;32;19984;-71
2022/05/12 10:01:17;;;;;;;;;;;;;;;18.60;41.11;100829.31;3960734;31;15718002;-70
2022/05/12 10:09:25;;;;;;;;;;;;;;;18.68;40.48;100819.09;4437404;32;19993;-71
2022/05/12 10:12:10;;;;;;;;;;;;;;;18.72;40.31;100820.44;4441655;32;20273;-71
2022/05/12 10:14:42;;;;;;;;;;;;;;;19.21;39.75;100829.00;4438474;32;19961;-71
2022/05/12 10:17:27;;;;;;;;;;;;;;;19.46;39.06;100821.88;4434423;32;19972;-71
2022/05/12 10:19:54;;;;;;;;;;;;;;;19.43;39.08;100826.50;4438513;32;20087;-73
2022/05/12 10:22:40;;;;;;;;;;;;;;;19.47;38.97;100818.53;4440291;32;19961;-72
2022/05/12 10:27:49;;;;;;;;;;;;;;;19.78;38.40;100820.75;3948154;32;15724243;-73
2022/05/12 10:30:22;;;;;;;;;;;;;;;19.78;38.40;100820.75;4424421;32;20038;-71
2022/05/12 10:33:02;;;;;;;;;;;;;;;20.00;37.54;100812.44;4422348;32;21038;-71
2022/05/12 10:40:46;;;;;;;;;;;;;;;19.65;38.01;100817.47;3943824;32;15723645;-72
2022/05/12 10:46:01;;;;;;;;;;;;;;;18.86;39.74;100805.38;3942757;32;15727370;-73
2022/05/12 10:48:38;;;;;;;;;;;;;;;18.86;39.74;100805.38;4419147;32;20453;-72
2022/05/12 10:51:05;;;;;;;;;;;;;;;19.30;38.90;100806.09;4424844;32;20053;-72
2022/05/12 10:59:08;;;;;;;;;;;;;;;21.87;34.37;100813.22;3948163;32;15723430;-72
2022/05/12 11:01:38;;;;;;;;;;;;;;;21.31;33.67;100809.28;4416151;32;20012;-73
2022/05/12 11:06:49;;;;;;;;;;;;;;;22.04;32.46;100791.16;3946530;32;15723312;-72
2022/05/12 11:09:17;;;;;;;;;;;;;;;22.04;32.46;100791.16;4429551;32;20001;-72
2022/05/12 11:11:45;;;;;;;;;;;;;;;21.50;33.24;100798.16;4426810;32;20582;-71
2022/05/12 11:14:17;;;;;;;;;;;;;;;21.54;32.78;100807.31;4427643;32;20384;-71
2022/05/12 11:16:47;;;;;;;;;;;;;;;21.42;33.08;100803.59;4415435;32;20011;-71
2022/05/12 11:19:15;;;;;;;;;;;;;;;21.50;33.89;100792.44;4431456;32;19988;-71
2022/05/12 11:21:45;;;;;;;;;;;;;;;21.62;32.78;100792.00;4429707;32;20036;-71
2022/05/12 11:24:19;;;;;;;;;;;;;;;21.85;33.02;100792.91;4428752;32;20586;-72
2022/05/12 11:29:43;;;;;;;;;;;;;;;23.74;31.06;100783.00;3945902;32;15721554;-72
2022/05/12 11:32:29;;;;;;;;;;;;;;;23.74;31.06;100783.00;4416982;32;20606;-71
2022/05/12 11:34:57;;;;;;;;;;;;;;;23.79;30.71;100785.06;4415984;32;19995;-71
2022/05/12 11:40:34;;;;;;;;;;;;;;;25.60;27.81;100771.34;3957326;31;15719426;-71
2022/05/12 11:45:49;;;;;;;;;;;;;;;25.29;28.35;100769.84;4426599;32;20375;-72
2022/05/12 11:51:02;;;;;;;;;;;;;;;25.30;28.09;100773.50;3947639;32;15724571;-72
2022/05/12 11:53:47;;;;;;;;;;;;;;;25.30;28.09;100773.50;4424901;32;20396;-73
2022/05/12 11:56:13;;;;;;;;;;;;;;;25.04;27.44;100758.84;4422590;32;19961;-73
2022/05/12 11:58:41;;;;;;;;;;;;;;;24.95;27.03;100759.97;4427294;32;19997;-73
2022/05/12 12:01:14;;;;;;;;;;;;;;;24.61;26.85;100761.53;4423334;32;19996;-72
2022/05/12 12:06:42;;;;;;;;;;;;;;;23.93;27.89;100778.97;3923895;32;15739507;-72
2022/05/12 12:09:27;;;;;;;;;;;;;;;23.93;27.89;100778.97;4395777;32;19954;-72
2022/05/12 12:11:53;;;;;;;;;;;;;;;22.79;29.54;100765.19;4395191;32;20295;-72
2022/05/12 12:14:39;;;;;;;;;;;;;;;21.87;31.33;100775.19;4390591;32;20695;-71
2022/05/12 12:17:07;;;;;;;;;;;;;;;20.83;33.44;100776.91;4390917;32;19955;-72
2022/05/12 12:19:49;;;;;;;;;;;;;;;20.81;33.60;100770.91;4397143;32;19953;-71
2022/05/12 12:22:19;;;;;;;;;;;;;;;20.51;34.38;100768.81;4389579;32;20015;-72
2022/05/12 12:25:05;;;;;;;;;;;;;;;21.00;33.62;100765.59;4395280;32;20009;-70
2022/05/12 12:27:36;;;;;;;;;;;;;;;21.63;31.48;100769.88;4391764;32;20479;-71
2022/05/12 12:30:20;;;;;;;;;;;;;;;22.19;30.51;100767.97;4395785;32;19993;-70
2022/05/12 12:33:06;;;;;;;;;;;;;;;22.53;29.88;100769.63;4388291;32;20035;-71
2022/05/12 12:35:47;;;;;;;;;;;;;;;21.75;31.26;100779.31;4383937;32;19962;-70
2022/05/12 12:38:33;;;;;;;;;;;;;;;21.51;31.87;100783.34;4389628;32;20397;-70
2022/05/12 12:41:01;;;;;;;;;;;;;;;21.32;32.61;100770.75;4394193;32;20001;-71
2022/05/12 12:43:32;;;;;;;;;;;;;;;20.69;33.32;100786.41;4393349;32;19958;-72
2022/05/12 12:45:58;;;;;;;;;;;;;;;20.61;33.75;100781.66;4394047;32;19997;-71
2022/05/12 12:48:29;;;;;;;;;;;;;;;20.34;34.06;100780.09;4393091;32;20575;-71
2022/05/12 12:50:55;;;;;;;;;;;;;;;20.48;34.00;100767.78;4393036;32;20020;-69
2022/05/12 12:58:46;;;;;;;;;;;;;;;22.55;30.20;100767.03;4421530;32;20419;-71
2022/05/12 13:01:16;;;;;;;;;;;;;;;22.86;29.49;100756.03;4409289;32;19988;-71
2022/05/12 13:03:45;;;;;;;;;;;;;;;23.73;28.47;100762.09;4424284;32;20012;-68
2022/05/12 13:06:15;;;;;;;;;;;;;;;23.71;28.53;100755.31;4426665;32;20350;-71
2022/05/12 13:08:41;;;;;;;;;;;;;;;24.24;27.95;100754.78;4426584;32;20415;-71
2022/05/12 13:11:07;;;;;;;;;;;;;;;24.37;27.76;100752.06;4426360;32;19984;-71
2022/05/12 13:13:45;;;;;;;;;;;;;;;24.05;27.92;100754.63;4423643;32;20478;-71
2022/05/12 13:16:14;;;;;;;;;;;;;;;24.20;27.76;100746.44;4423510;32;20296;-71
2022/05/12 13:18:45;;;;;;;;;;;;;;;24.13;27.81;100738.37;4427381;32;19972;-69
2022/05/12 13:21:18;;;;;;;;;;;;;;;25.00;26.06;100741.06;4427804;32;19957;-72
2022/05/12 13:23:56;;;;;;;;;;;;;;;25.00;26.05;100736.09;4424499;32;20451;-69
2022/05/12 13:26:21;;;;;;;;;;;;;;;24.32;26.99;100742.16;4423065;32;20009;-70
2022/05/12 13:28:47;;;;;;;;;;;;;;;23.34;28.34;100732.72;4427506;32;20308;-71
2022/05/12 13:31:23;;;;;;;;;;;;;;;22.92;28.93;100744.56;4427838;32;19980;-70
2022/05/12 13:34:09;;;;;;;;;;;;;;;22.52;29.64;100736.50;4423753;32;20491;-71
2022/05/12 13:39:36;;;;;;;;;;;;;;;22.67;28.94;100734.94;3941408;32;15727594;-70
2022/05/12 13:42:03;;;;;;;;;;;;;;;22.67;28.94;100734.94;4420707;32;20429;-70
2022/05/12 13:44:32;;;;;;;;;;;;;;;22.30;28.45;100725.78;4422578;32;20362;-70
2022/05/12 13:47:00;;;;;;;;;;;;;;;21.82;29.12;100730.91;4421507;32;19997;-69
2022/05/12 13:49:27;;;;;;;;;;;;;;;22.86;27.99;100717.97;4422705;32;20081;-70